createdAt,value
2022-10-07T00:01:10.298Z,99.90
2022-10-07T00:03:38.057Z,99.90
2022-10-07T00:06:17.741Z,99.90
2022-10-07T00:08:48.712Z,99.90
2022-10-07T00:11:26.749Z,99.90
2022-10-07T00:14:00.911Z,99.90
2022-10-07T00:16:36.225Z,99.90
2022-10-07T00:19:06.603Z,99.90
2022-10-07T00:21:36.632Z,99.90
2022-10-07T00:24:05.414Z,99.90
2022-10-07T00:26:36.332Z,99.90
2022-10-07T00:29:06.885Z,99.90
2022-10-07T00:31:36.847Z,99.90
2022-10-07T00:34:05.557Z,99.90
2022-10-07T00:36:35.739Z,99.90
2022-10-07T00:39:06.759Z,99.90
2022-10-07T00:41:38.939Z,99.90
2022-10-07T00:44:31.896Z,99.90
2022-10-07T00:47:04.091Z,99.90
2022-10-07T00:49:43.013Z,99.90
2022-10-07T00:52:11.605Z,99.90
2022-10-07T00:54:39.899Z,99.90
2022-10-07T00:57:07.999Z,99.90
2022-10-07T00:59:38.580Z,99.90
2022-10-07T01:02:07.212Z,99.90
2022-10-07T01:04:35.876Z,99.90
2022-10-07T01:07:04.534Z,99.90
2022-10-07T01:09:32.393Z,99.90
2022-10-07T01:12:17.301Z,99.90
2022-10-07T01:15:15.355Z,99.90
2022-10-07T01:18:04.355Z,99.90
2022-10-07T01:20:34.004Z,99.90
2022-10-07T01:23:20.136Z,99.90
2022-10-07T01:26:14.958Z,99.90
2022-10-07T01:28:58.412Z,99.90
2022-10-07T01:31:42.759Z,99.90
2022-10-07T01:34:12.107Z,99.90
2022-10-07T01:36:41.883Z,99.90
2022-10-07T01:39:16.187Z,99.90
2022-10-07T01:41:44.166Z,99.90
2022-10-07T01:44:16.333Z,99.90
2022-10-07T01:46:44.859Z,99.90
2022-10-07T01:49:12.818Z,99.90
2022-10-07T01:51:58.706Z,99.90
2022-10-07T01:54:45.100Z,99.90
2022-10-07T01:57:33.576Z,99.90
2022-10-07T02:00:11.876Z,99.90
2022-10-07T02:03:17.916Z,99.90
2022-10-07T02:06:03.296Z,99.90
2022-10-07T02:08:46.281Z,99.90
2022-10-07T02:11:24.052Z,99.90
2022-10-07T02:14:05.719Z,99.90
2022-10-07T02:16:51.844Z,99.90
2022-10-07T02:19:32.494Z,99.90
2022-10-07T02:22:05.173Z,99.90
2022-10-07T02:24:38.565Z,99.90
2022-10-07T02:27:12.630Z,99.90
2022-10-07T02:29:43.881Z,99.90
2022-10-07T02:32:18.044Z,99.90
2022-10-07T02:34:53.105Z,99.90
2022-10-07T02:37:27.513Z,99.90
2022-10-07T02:39:57.331Z,99.90
2022-10-07T02:42:31.202Z,99.90
2022-10-07T02:45:24.515Z,99.90
2022-10-07T02:48:18.674Z,99.90
2022-10-07T02:50:50.409Z,99.90
2022-10-07T02:53:21.418Z,99.90
2022-10-07T02:55:52.702Z,99.90
2022-10-07T02:58:24.574Z,99.90
2022-10-07T03:00:58.334Z,99.90
2022-10-07T03:03:27.224Z,99.90
2022-10-07T03:06:00.389Z,99.90
2022-10-07T03:08:29.222Z,99.90
2022-10-07T03:10:57.888Z,99.90
2022-10-07T03:13:26.779Z,99.90
2022-10-07T03:15:59.453Z,99.90
2022-10-07T03:18:29.454Z,99.90
2022-10-07T03:21:16.680Z,99.90
2022-10-07T03:23:45.446Z,99.90
2022-10-07T03:26:13.663Z,99.90
2022-10-07T03:28:41.880Z,99.90
2022-10-07T03:31:12.283Z,99.90
2022-10-07T03:33:45.735Z,99.90
2022-10-07T03:36:14.267Z,99.90
2022-10-07T03:38:44.639Z,99.90
2022-10-07T03:41:13.416Z,99.90
2022-10-07T03:43:41.350Z,99.90
2022-10-07T03:46:10.642Z,99.90
2022-10-07T03:48:39.984Z,99.90
2022-10-07T03:51:08.694Z,99.90
2022-10-07T03:53:41.910Z,99.90
2022-10-07T03:56:10.045Z,99.90
2022-10-07T03:58:39.592Z,99.90
2022-10-07T04:01:13.002Z,99.90
2022-10-07T04:03:47.718Z,99.90
2022-10-07T04:06:15.921Z,99.90
2022-10-07T04:08:45.053Z,99.90
2022-10-07T04:11:13.828Z,99.90
2022-10-07T04:13:45.427Z,99.90
2022-10-07T04:16:13.847Z,99.90
2022-10-07T04:18:44.299Z,99.90
2022-10-07T04:21:12.614Z,99.90
2022-10-07T04:23:42.116Z,99.90
2022-10-07T04:26:12.027Z,99.90
2022-10-07T04:28:43.689Z,99.90
2022-10-07T04:31:14.793Z,99.90
2022-10-07T04:33:46.606Z,99.90
2022-10-07T04:36:20.234Z,99.90
2022-10-07T04:38:53.400Z,99.90
2022-10-07T04:41:26.507Z,99.90
2022-10-07T04:43:57.529Z,99.90
2022-10-07T04:46:28.789Z,99.90
2022-10-07T04:49:05.589Z,99.90
2022-10-07T04:51:33.512Z,99.90
2022-10-07T04:54:02.378Z,99.90
2022-10-07T04:56:36.049Z,99.90
2022-10-07T04:59:06.709Z,99.90
2022-10-07T05:01:36.889Z,99.90
2022-10-07T05:04:04.827Z,99.90
2022-10-07T05:06:33.814Z,99.90
2022-10-07T05:09:01.911Z,99.90
2022-10-07T05:11:32.716Z,99.90
2022-10-07T05:14:07.708Z,99.90
2022-10-07T05:16:37.027Z,99.90
2022-10-07T05:19:05.896Z,99.90
2022-10-07T05:21:34.332Z,99.90
2022-10-07T05:24:05.021Z,99.90
2022-10-07T05:26:36.748Z,99.90
2022-10-07T05:29:07.252Z,99.90
2022-10-07T05:31:39.537Z,99.90
2022-10-07T05:34:08.299Z,99.90
2022-10-07T05:36:36.956Z,99.90
2022-10-07T05:39:07.325Z,99.90
2022-10-07T05:41:46.119Z,99.90
2022-10-07T05:44:18.681Z,99.90
2022-10-07T05:46:48.116Z,99.90
2022-10-07T05:49:17.374Z,99.90
2022-10-07T05:51:45.419Z,99.90
2022-10-07T05:54:13.613Z,99.90
2022-10-07T05:56:43.838Z,99.90
2022-10-07T05:59:12.328Z,99.90
2022-10-07T06:01:43.046Z,99.90
2022-10-07T06:04:16.038Z,99.90
2022-10-07T06:06:47.463Z,99.90
2022-10-07T06:09:34.023Z,99.90
2022-10-07T06:12:24.906Z,99.90
2022-10-07T06:14:54.446Z,99.90
2022-10-07T06:17:22.510Z,99.90
2022-10-07T06:19:52.781Z,99.90
2022-10-07T06:22:22.990Z,99.90
2022-10-07T06:24:52.689Z,99.90
2022-10-07T06:27:20.647Z,99.90
2022-10-07T06:29:48.483Z,94.00
2022-10-07T06:32:16.603Z,90.40
2022-10-07T06:34:45.401Z,85.90
2022-10-07T06:37:14.026Z,78.20
2022-10-07T06:39:42.288Z,75.90
2022-10-07T06:42:10.560Z,73.20
2022-10-07T06:44:56.986Z,69.40
2022-10-07T06:47:25.321Z,68.50
2022-10-07T06:49:53.234Z,67.50
2022-10-07T06:52:21.136Z,61.70
2022-10-07T06:54:48.876Z,60.70
2022-10-07T06:57:40.833Z,58.80
2022-10-07T07:00:06.835Z,57.60
2022-10-07T07:02:36.317Z,56.00
2022-10-07T07:05:09.009Z,60.90
2022-10-07T07:07:38.742Z,65.10
2022-10-07T07:10:07.780Z,72.10
2022-10-07T07:12:38.359Z,76.00
2022-10-07T07:15:06.535Z,80.40
2022-10-07T07:17:34.653Z,83.20
2022-10-07T07:20:02.508Z,82.30
2022-10-07T07:22:31.211Z,87.50
2022-10-07T07:24:58.728Z,93.10
2022-10-07T07:27:26.609Z,93.90
2022-10-07T07:29:54.365Z,95.60
2022-10-07T07:32:22.133Z,96.10
2022-10-07T07:34:49.986Z,98.10
2022-10-07T07:37:22.495Z,99.60
2022-10-07T07:39:53.927Z,99.90
2022-10-07T07:42:22.832Z,99.90
2022-10-07T07:44:50.725Z,99.90
2022-10-07T07:47:21.193Z,99.90
2022-10-07T07:49:51.040Z,99.90
2022-10-07T07:52:26.004Z,99.90
2022-10-07T07:54:59.361Z,99.90
2022-10-07T07:57:28.753Z,99.90
2022-10-07T07:59:59.743Z,99.90
2022-10-07T08:02:28.007Z,99.90
2022-10-07T08:04:56.011Z,99.90
2022-10-07T08:07:26.514Z,99.90
2022-10-07T08:09:54.374Z,99.90
2022-10-07T08:12:23.686Z,99.90
2022-10-07T08:14:55.584Z,99.90
2022-10-07T08:17:23.387Z,99.90
2022-10-07T08:19:51.904Z,99.90
2022-10-07T08:22:20.007Z,99.90
2022-10-07T08:24:51.524Z,99.90
2022-10-07T08:27:21.761Z,99.90
2022-10-07T08:29:50.055Z,99.90
2022-10-07T08:32:17.956Z,99.80
2022-10-07T08:34:45.523Z,99.90
2022-10-07T08:37:13.204Z,99.90
2022-10-07T08:39:40.892Z,98.40
2022-10-07T08:42:28.797Z,99.00
2022-10-07T08:44:56.900Z,96.00
2022-10-07T08:47:38.141Z,91.00
2022-10-07T08:50:19.441Z,89.00
2022-10-07T08:53:13.114Z,78.10
2022-10-07T08:55:55.267Z,78.50
2022-10-07T08:58:49.546Z,67.00
2022-10-07T09:01:17.919Z,58.60
2022-10-07T09:04:07.196Z,55.20
2022-10-07T09:06:52.498Z,54.40
2022-10-07T09:09:25.784Z,53.60
2022-10-07T09:11:56.558Z,53.50
2022-10-07T09:14:24.066Z,53.50
2022-10-07T09:16:55.544Z,51.80
2022-10-07T09:19:34.204Z,49.80
2022-10-07T09:22:11.697Z,47.50
2022-10-07T09:24:39.501Z,49.50
2022-10-07T09:27:16.178Z,50.70
2022-10-07T09:29:44.516Z,44.50
2022-10-07T09:32:15.086Z,41.70
2022-10-07T09:34:43.075Z,41.20
2022-10-07T09:37:15.552Z,41.20
2022-10-07T09:39:44.887Z,45.20
2022-10-07T09:42:39.072Z,43.50
2022-10-07T09:45:22.035Z,40.50
2022-10-07T09:48:09.367Z,39.30
2022-10-07T09:50:42.895Z,40.60
2022-10-07T09:53:22.431Z,41.40
2022-10-07T09:55:53.161Z,45.50
2022-10-07T09:58:20.849Z,46.30
2022-10-07T10:00:50.764Z,42.10
2022-10-07T10:03:20.071Z,44.00
2022-10-07T10:06:00.388Z,41.10
2022-10-07T10:08:38.362Z,41.10
2022-10-07T10:11:23.687Z,39.00
2022-10-07T10:13:52.530Z,37.00
2022-10-07T10:16:26.322Z,38.10
2022-10-07T10:18:56.473Z,37.40
2022-10-07T10:21:37.087Z,39.10
2022-10-07T10:24:16.645Z,37.80
2022-10-07T10:27:01.765Z,37.10
2022-10-07T10:29:50.859Z,34.20
2022-10-07T10:32:31.233Z,35.30
2022-10-07T10:35:14.574Z,38.30
2022-10-07T10:37:42.109Z,34.90
2022-10-07T10:40:13.083Z,35.00
2022-10-07T10:42:44.697Z,37.00
2022-10-07T10:45:32.417Z,40.50
2022-10-07T10:48:25.250Z,40.70
2022-10-07T10:51:13.596Z,38.20
2022-10-07T10:54:05.689Z,36.90
2022-10-07T10:56:33.740Z,38.70
2022-10-07T10:59:14.375Z,39.50
2022-10-07T11:01:45.193Z,38.20
2022-10-07T11:04:35.078Z,36.40
2022-10-07T11:07:32.491Z,36.10
2022-10-07T11:10:14.355Z,35.80
2022-10-07T11:12:47.281Z,37.60
2022-10-07T11:15:26.776Z,37.70
2022-10-07T11:17:59.873Z,36.30
2022-10-07T11:20:48.871Z,36.70
2022-10-07T11:23:22.841Z,37.70
2022-10-07T11:25:57.836Z,36.80
2022-10-07T11:28:28.821Z,36.10
2022-10-07T11:31:27.087Z,36.30
2022-10-07T11:34:01.277Z,36.60
2022-10-07T11:36:37.248Z,41.40
2022-10-07T11:39:05.042Z,41.90
2022-10-07T11:41:36.446Z,41.10
2022-10-07T11:44:10.053Z,37.70
2022-10-07T11:46:41.480Z,39.70
2022-10-07T11:49:38.611Z,41.50
2022-10-07T11:52:11.324Z,47.20
2022-10-07T11:54:46.874Z,43.30
2022-10-07T11:57:24.712Z,44.50
2022-10-07T12:00:06.392Z,47.00
2022-10-07T12:02:41.620Z,47.20
2022-10-07T12:05:35.232Z,46.20
2022-10-07T12:08:26.922Z,48.60
2022-10-07T12:10:57.581Z,48.80
2022-10-07T12:13:54.729Z,52.20
2022-10-07T12:16:42.317Z,50.10
2022-10-07T12:19:13.367Z,51.50
2022-10-07T12:22:03.274Z,51.10
2022-10-07T12:24:33.456Z,53.60
2022-10-07T12:27:23.607Z,53.50
2022-10-07T12:30:03.299Z,55.60
2022-10-07T12:32:47.507Z,52.60
2022-10-07T12:35:34.832Z,51.50
2022-10-07T12:38:25.022Z,53.40
2022-10-07T12:41:13.797Z,58.40
2022-10-07T12:43:50.251Z,63.30
2022-10-07T12:46:21.434Z,63.10
2022-10-07T12:49:05.300Z,59.20
2022-10-07T12:51:39.689Z,54.00
2022-10-07T12:54:30.439Z,52.60
2022-10-07T12:56:58.932Z,60.90
2022-10-07T12:59:47.043Z,61.20
2022-10-07T13:02:59.204Z,61.60
2022-10-07T13:05:48.970Z,51.70
2022-10-07T13:08:54.607Z,56.10
2022-10-07T13:11:47.685Z,55.90
2022-10-07T13:14:36.798Z,55.20
2022-10-07T13:17:13.786Z,52.70
2022-10-07T13:19:57.668Z,58.30
2022-10-07T13:22:26.857Z,59.70
2022-10-07T13:24:56.939Z,50.80
2022-10-07T13:27:30.751Z,52.00
2022-10-07T13:30:04.397Z,51.40
2022-10-07T13:32:36.222Z,50.30
2022-10-07T13:35:34.087Z,48.20
2022-10-07T13:38:04.092Z,48.80
2022-10-07T13:40:36.211Z,47.40
2022-10-07T13:43:10.432Z,49.20
2022-10-07T13:45:45.427Z,48.50
2022-10-07T13:48:18.904Z,42.70
2022-10-07T13:50:48.537Z,46.40
2022-10-07T13:53:34.030Z,49.30
2022-10-07T13:56:17.482Z,44.00
2022-10-07T13:58:47.023Z,48.90
2022-10-07T14:01:15.409Z,48.30
2022-10-07T14:04:17.485Z,49.00
2022-10-07T14:07:02.344Z,50.00
2022-10-07T14:09:37.905Z,56.30
2022-10-07T14:12:10.062Z,57.80
2022-10-07T14:14:41.448Z,58.50
2022-10-07T14:17:31.313Z,58.70
2022-10-07T14:20:05.774Z,64.80
2022-10-07T14:22:39.439Z,65.40
2022-10-07T14:25:18.335Z,69.30
2022-10-07T14:27:59.022Z,70.20
2022-10-07T14:30:55.568Z,70.80
2022-10-07T14:33:49.381Z,77.20
2022-10-07T14:36:22.199Z,78.90
2022-10-07T14:38:51.421Z,86.10
2022-10-07T14:41:22.416Z,91.30
2022-10-07T14:43:52.539Z,99.90
2022-10-07T14:46:23.405Z,99.90
2022-10-07T14:48:53.798Z,99.90
2022-10-07T14:51:30.798Z,99.90
2022-10-07T14:54:05.617Z,99.90
2022-10-07T14:56:36.750Z,99.90
2022-10-07T14:59:04.634Z,99.90
2022-10-07T15:01:32.395Z,99.90
2022-10-07T15:04:00.869Z,99.90
2022-10-07T15:06:29.535Z,99.90
2022-10-07T15:08:57.510Z,99.90
2022-10-07T15:11:25.597Z,99.90
2022-10-07T15:13:53.936Z,99.90
2022-10-07T15:16:28.106Z,99.90
2022-10-07T15:18:56.562Z,99.90
2022-10-07T15:21:24.305Z,99.90
2022-10-07T15:23:55.875Z,99.90
2022-10-07T15:26:25.383Z,99.90
2022-10-07T15:28:58.450Z,99.90
2022-10-07T15:31:29.643Z,99.90
2022-10-07T15:33:58.205Z,99.90
2022-10-07T15:36:28.878Z,99.90
2022-10-07T15:39:02.210Z,99.90
2022-10-07T15:41:39.145Z,99.90
2022-10-07T15:44:16.712Z,99.90
2022-10-07T15:46:46.414Z,99.90
2022-10-07T15:49:15.760Z,99.90
2022-10-07T15:51:44.050Z,99.90
2022-10-07T15:54:11.831Z,99.90
2022-10-07T15:56:39.864Z,99.90
2022-10-07T15:59:08.131Z,99.90
2022-10-07T16:01:36.435Z,99.90
2022-10-07T16:04:06.415Z,99.90
2022-10-07T16:06:35.907Z,99.90
2022-10-07T16:09:04.289Z,99.90
2022-10-07T16:11:33.514Z,99.90
2022-10-07T16:14:03.003Z,99.90
2022-10-07T16:16:32.993Z,99.90
2022-10-07T16:19:01.400Z,99.90
2022-10-07T16:21:32.372Z,99.90
2022-10-07T16:24:06.983Z,99.90
2022-10-07T16:26:37.695Z,99.90
2022-10-07T16:29:26.755Z,99.90
2022-10-07T16:31:58.797Z,99.90
2022-10-07T16:34:28.842Z,99.90
2022-10-07T16:36:58.598Z,99.90
2022-10-07T16:39:29.370Z,99.90
2022-10-07T16:42:00.289Z,99.90
2022-10-07T16:44:28.337Z,99.90
2022-10-07T16:46:59.480Z,99.90
2022-10-07T16:49:29.353Z,99.90
2022-10-07T16:51:58.688Z,99.90
2022-10-07T16:54:30.122Z,99.90
2022-10-07T16:56:58.756Z,99.90
2022-10-07T16:59:27.213Z,99.90
2022-10-07T17:01:57.223Z,99.90
2022-10-07T17:04:25.709Z,99.90
2022-10-07T17:06:54.382Z,99.90
2022-10-07T17:09:24.940Z,99.90
2022-10-07T17:11:53.426Z,99.90
2022-10-07T17:14:23.170Z,99.90
2022-10-07T17:16:57.074Z,99.90
2022-10-07T17:19:28.372Z,99.90
2022-10-07T17:21:59.512Z,99.90
2022-10-07T17:24:28.160Z,99.90
2022-10-07T17:26:56.586Z,99.90
2022-10-07T17:29:26.851Z,99.90
2022-10-07T17:31:55.872Z,99.90
2022-10-07T17:34:24.394Z,99.90
2022-10-07T17:36:52.855Z,99.90
2022-10-07T17:39:21.090Z,99.90
2022-10-07T17:41:49.779Z,99.90
2022-10-07T17:44:19.112Z,99.90
2022-10-07T17:46:49.501Z,99.90
2022-10-07T17:49:17.407Z,99.90
2022-10-07T17:51:46.376Z,99.90
2022-10-07T17:54:15.113Z,99.90
2022-10-07T17:56:44.964Z,99.90
2022-10-07T17:59:13.297Z,99.90
2022-10-07T18:01:42.464Z,99.90
2022-10-07T18:04:15.094Z,99.90
2022-10-07T18:06:43.589Z,99.90
2022-10-07T18:09:15.773Z,99.90
2022-10-07T18:12:05.319Z,99.90
2022-10-07T18:14:54.101Z,99.90
2022-10-07T18:17:23.693Z,99.90
2022-10-07T18:19:52.022Z,99.90
2022-10-07T18:22:20.267Z,99.90
2022-10-07T18:24:50.273Z,99.90
2022-10-07T18:27:18.408Z,99.90
2022-10-07T18:29:46.648Z,99.90
2022-10-07T18:32:14.554Z,99.90
2022-10-07T18:34:42.593Z,99.90
2022-10-07T18:37:10.812Z,99.90
2022-10-07T18:39:39.509Z,99.90
2022-10-07T18:42:07.630Z,99.90
2022-10-07T18:44:35.839Z,99.90
2022-10-07T18:47:03.956Z,99.90
2022-10-07T18:49:31.860Z,99.90
2022-10-07T18:51:59.730Z,99.90
2022-10-07T18:54:27.871Z,99.90
2022-10-07T18:56:56.118Z,99.90
2022-10-07T18:59:24.248Z,99.90
2022-10-07T19:01:54.490Z,99.90
2022-10-07T19:04:22.553Z,99.90
2022-10-07T19:06:50.328Z,99.90
2022-10-07T19:09:21.183Z,99.90
2022-10-07T19:11:49.964Z,99.90
2022-10-07T19:14:18.197Z,99.90
2022-10-07T19:16:49.604Z,99.90
2022-10-07T19:19:21.785Z,99.90
2022-10-07T19:21:54.378Z,99.90
2022-10-07T19:24:42.731Z,99.90
2022-10-07T19:27:10.685Z,99.90
2022-10-07T19:29:38.362Z,99.90
2022-10-07T19:32:08.624Z,99.90
2022-10-07T19:34:37.717Z,99.90
2022-10-07T19:37:05.511Z,99.90
2022-10-07T19:39:33.805Z,99.90
2022-10-07T19:42:01.724Z,99.90
2022-10-07T19:44:29.890Z,99.90
2022-10-07T19:46:58.341Z,99.90
2022-10-07T19:49:26.451Z,99.90
2022-10-07T19:51:54.300Z,99.90
2022-10-07T19:54:22.151Z,99.90
2022-10-07T19:56:50.026Z,99.90
2022-10-07T19:59:18.316Z,99.90
2022-10-07T20:01:47.644Z,99.90
2022-10-07T20:04:19.251Z,99.90
2022-10-07T20:06:47.628Z,99.90
2022-10-07T20:09:18.092Z,99.90
2022-10-07T20:11:47.095Z,99.90
2022-10-07T20:14:16.450Z,99.90
2022-10-07T20:16:45.645Z,99.90
2022-10-07T20:19:16.125Z,99.90
2022-10-07T20:21:46.582Z,99.90
2022-10-07T20:24:18.119Z,99.90
2022-10-07T20:26:46.632Z,99.90
2022-10-07T20:29:16.899Z,99.90
2022-10-07T20:31:46.193Z,99.90
2022-10-07T20:34:16.544Z,99.90
2022-10-07T20:36:44.839Z,99.90
2022-10-07T20:39:37.386Z,99.90
2022-10-07T20:42:25.989Z,99.90
2022-10-07T20:44:54.089Z,99.90
2022-10-07T20:47:23.800Z,99.90
2022-10-07T20:49:52.040Z,99.90
2022-10-07T20:52:22.067Z,99.90
2022-10-07T20:54:51.206Z,99.90
2022-10-07T20:57:21.577Z,99.90
2022-10-07T20:59:49.345Z,99.90
2022-10-07T21:02:19.250Z,99.90
2022-10-07T21:04:49.616Z,99.90
2022-10-07T21:07:18.784Z,99.90
2022-10-07T21:09:47.181Z,99.90
2022-10-07T21:12:17.208Z,99.90
2022-10-07T21:14:48.098Z,99.90
2022-10-07T21:17:16.136Z,99.90
2022-10-07T21:19:44.199Z,99.90
2022-10-07T21:22:11.993Z,99.90
2022-10-07T21:24:40.005Z,99.90
2022-10-07T21:27:09.002Z,99.90
2022-10-07T21:29:40.800Z,99.90
2022-10-07T21:32:12.552Z,99.90
2022-10-07T21:34:40.733Z,99.90
2022-10-07T21:37:08.484Z,99.90
2022-10-07T21:39:36.554Z,99.90
2022-10-07T21:42:04.451Z,99.90
2022-10-07T21:44:33.601Z,99.90
2022-10-07T21:47:01.399Z,99.90
2022-10-07T21:49:29.213Z,99.90
2022-10-07T21:51:57.507Z,99.90
2022-10-07T21:54:26.409Z,99.90
2022-10-07T21:56:54.072Z,99.90
2022-10-07T21:59:21.841Z,99.90
2022-10-07T22:01:49.786Z,99.90
2022-10-07T22:04:19.034Z,99.90
2022-10-07T22:07:05.581Z,99.90
2022-10-07T22:09:33.615Z,99.90
2022-10-07T22:12:01.451Z,99.90
2022-10-07T22:14:29.437Z,99.90
2022-10-07T22:16:57.226Z,99.90
2022-10-07T22:19:25.487Z,99.90
2022-10-07T22:21:53.550Z,99.90
2022-10-07T22:24:21.402Z,99.90
2022-10-07T22:26:51.463Z,99.90
2022-10-07T22:29:21.062Z,99.90
2022-10-07T22:31:48.803Z,99.90
2022-10-07T22:34:42.875Z,99.90
2022-10-07T22:37:10.626Z,99.90
2022-10-07T22:39:38.682Z,99.90
2022-10-07T22:42:06.392Z,99.90
2022-10-07T22:44:34.003Z,99.90
2022-10-07T22:47:02.640Z,99.90
2022-10-07T22:49:30.573Z,99.90
2022-10-07T22:52:01.846Z,99.90
2022-10-07T22:54:30.241Z,99.90
2022-10-07T22:56:57.949Z,99.90
2022-10-07T22:59:25.627Z,99.90
2022-10-07T23:01:53.923Z,99.90
2022-10-07T23:04:21.992Z,99.90
2022-10-07T23:06:49.767Z,99.90
2022-10-07T23:09:17.463Z,99.90
2022-10-07T23:11:46.267Z,99.90
2022-10-07T23:14:14.185Z,99.90
2022-10-07T23:16:42.123Z,99.90
2022-10-07T23:19:09.892Z,99.90
2022-10-07T23:21:37.859Z,99.90
2022-10-07T23:24:08.208Z,99.90
2022-10-07T23:26:37.587Z,99.90
2022-10-07T23:29:05.794Z,99.90
2022-10-07T23:31:33.822Z,99.90
2022-10-07T23:34:02.490Z,99.90
2022-10-07T23:36:30.446Z,99.90
2022-10-07T23:38:59.868Z,99.90
2022-10-07T23:41:29.498Z,99.90
2022-10-07T23:43:59.025Z,99.90
2022-10-07T23:46:28.471Z,99.90
2022-10-07T23:48:56.292Z,99.90
2022-10-07T23:51:27.360Z,99.90
2022-10-07T23:54:00.202Z,99.90
2022-10-07T23:56:28.416Z,99.90
2022-10-07T23:58:56.290Z,99.90
